Terminal Aerodrome Forecast
Issued by NWS

Home | Current Version | Previous Version | Text Only | Print | Product List | Glossary On
Versions: 1 2 3 4 5 6 7 8 9 10 11 12 13 14 15
003
FTUS43 KICT 231720
TAFCNU
TAF
KCNU 231720Z 2318/2418 34012KT P6SM BKN060
     FM232100 33012KT P6SM VCSH BKN050
     FM240000 33009KT P6SM BKN040
     FM240300 32006KT P6SM SCT140
     FM241400 33009KT P6SM SCT035
     FM241500 33010KT P6SM BKN040
     FM241700 33010KT P6SM SCT040=

USA.gov is the U.S. government's official web portal to all federal, state and local government web resources and services.